Time;durP1;ratioP1;P1;durP2;ratioP2;P2;SDS_P1;SDS_P2;PMS_P1;PMS_P2;Temp;Humidity;BMP_temperature;BMP_pressure;BME280_temperature;BME280_humidity;BME280_pressure;Samples;Min_cycle;Max_cycle;Signal;HPM_P1;HPM_P2
2023/12/03 00:00:54;;;;;;;4.53;2.25;;;0.40;99.90;;;;;;5035985;28;20200;-82
2023/12/03 00:03:21;;;;;;;8.52;5.57;;;0.50;99.90;;;;;;5035326;28;20200;-82
2023/12/03 00:05:49;;;;;;;2.78;2.58;;;0.40;99.90;;;;;;5034105;28;20206;-83
2023/12/03 00:08:16;;;;;;;2.30;2.10;;;0.50;99.90;;;;;;5034412;28;20718;-83
2023/12/03 00:10:43;;;;;;;7.18;4.80;;;0.40;99.90;;;;;;5033761;28;20219;-83
2023/12/03 00:13:10;;;;;;;1.00;1.00;;;0.40;99.90;;;;;;5034021;28;20202;-82
2023/12/03 00:15:38;;;;;;;2.10;2.00;;;0.50;99.90;;;;;;5032834;28;20199;-83
2023/12/03 00:18:05;;;;;;;8.30;3.70;;;0.50;99.90;;;;;;5033036;28;20295;-83
2023/12/03 00:20:32;;;;;;;5.22;2.10;;;0.50;99.90;;;;;;5033082;28;20206;-83
2023/12/03 00:22:59;;;;;;;2.45;2.08;;;0.50;99.90;;;;;;5033128;28;20215;-83
2023/12/03 00:25:26;;;;;;;10.82;2.53;;;0.50;99.90;;;;;;5032985;28;20294;-83
2023/12/03 00:27:52;;;;;;;2.45;1.85;;;0.60;99.90;;;;;;5035797;28;20187;-84
2023/12/03 00:30:19;;;;;;;8.70;3.33;;;0.50;99.90;;;;;;5035884;28;20203;-85
2023/12/03 00:32:48;;;;;;;26.10;9.77;;;0.50;99.90;;;;;;5037049;28;20283;-84
2023/12/03 00:35:15;;;;;;;9.25;3.20;;;0.50;99.90;;;;;;5035767;28;20195;-84
2023/12/03 00:37:42;;;;;;;6.32;5.28;;;0.50;99.90;;;;;;5036781;28;20207;-84
2023/12/03 00:40:09;;;;;;;4.60;4.40;;;0.50;99.90;;;;;;5037661;28;20202;-84
2023/12/03 00:42:36;;;;;;;8.82;5.50;;;0.50;99.90;;;;;;5039844;28;20262;-84
2023/12/03 00:45:03;;;;;;;5.45;3.38;;;0.50;99.90;;;;;;5040387;28;20195;-84
2023/12/03 00:47:30;;;;;;;11.52;5.97;;;0.40;99.90;;;;;;5039926;28;20200;-84
2023/12/03 00:49:58;;;;;;;18.48;7.07;;;0.40;99.90;;;;;;5040038;28;20396;-84
2023/12/03 00:52:25;;;;;;;3.28;2.97;;;0.40;99.90;;;;;;5039851;28;20666;-84
2023/12/03 00:54:52;;;;;;;6.97;6.43;;;0.30;99.90;;;;;;5039944;28;20570;-84
2023/12/03 00:57:18;;;;;;;3.15;2.90;;;0.30;99.90;;;;;;5040334;28;20698;-83
2023/12/03 00:59:45;;;;;;;20.00;7.20;;;0.30;99.90;;;;;;5045338;28;20202;-84
2023/12/03 01:02:12;;;;;;;9.45;7.15;;;0.30;99.90;;;;;;5040644;28;20283;-84
2023/12/03 01:04:39;;;;;;;2.53;2.33;;;0.30;99.90;;;;;;5039631;28;20208;-84
2023/12/03 01:07:08;;;;;;;8.07;6.50;;;0.30;99.90;;;;;;5040436;28;20578;-84
2023/12/03 01:09:35;;;;;;;17.08;5.30;;;0.30;99.90;;;;;;5040519;28;20204;-84
2023/12/03 01:12:01;;;;;;;2.15;2.00;;;0.30;99.90;;;;;;5039883;28;20311;-83
2023/12/03 01:14:28;;;;;;;5.80;3.65;;;0.30;99.90;;;;;;5039745;28;20291;-85
2023/12/03 01:16:55;;;;;;;7.90;4.55;;;0.30;99.90;;;;;;5039503;28;20231;-85
2023/12/03 01:19:22;;;;;;;0.60;0.60;;;0.30;99.90;;;;;;5039926;28;20215;-85
2023/12/03 01:21:48;;;;;;;8.32;4.72;;;0.40;99.90;;;;;;5039765;28;20222;-85
2023/12/03 01:24:17;;;;;;;3.13;2.83;;;0.40;99.90;;;;;;5045179;28;20198;-84
2023/12/03 01:26:44;;;;;;;1.63;1.52;;;0.40;99.90;;;;;;5050273;28;20188;-84
2023/12/03 01:29:11;;;;;;;6.05;4.53;;;0.40;99.90;;;;;;5044645;28;20192;-84
2023/12/03 01:31:38;;;;;;;6.72;3.95;;;0.40;99.90;;;;;;5038635;28;20230;-85
2023/12/03 01:34:04;;;;;;;4.80;4.05;;;0.50;99.90;;;;;;5039087;28;20299;-85
2023/12/03 01:36:31;;;;;;;6.68;4.47;;;0.50;99.90;;;;;;5039271;28;20196;-85
2023/12/03 01:38:58;;;;;;;0.73;0.73;;;0.50;99.90;;;;;;5038991;28;20216;-85
2023/12/03 01:41:26;;;;;;;19.75;4.15;;;0.50;99.90;;;;;;5038533;28;20227;-85
2023/12/03 01:43:54;;;;;;;3.72;3.58;;;0.50;99.90;;;;;;5038742;28;20192;-84
2023/12/03 01:46:21;;;;;;;7.35;5.43;;;0.50;99.90;;;;;;5039051;28;20200;-85
2023/12/03 01:48:49;;;;;;;20.13;6.65;;;0.60;99.90;;;;;;5038383;28;20190;-85
2023/12/03 01:51:16;;;;;;;1.08;0.98;;;0.50;99.90;;;;;;5037724;28;20222;-85
2023/12/03 01:53:44;;;;;;;6.72;5.45;;;0.60;99.90;;;;;;5038481;28;20203;-82
2023/12/03 01:56:12;;;;;;;8.02;6.13;;;0.60;99.90;;;;;;5038761;28;20188;-85
2023/12/03 01:58:41;;;;;;;9.30;6.93;;;0.60;99.90;;;;;;5038064;28;20215;-85
2023/12/03 02:01:08;;;;;;;3.67;1.80;;;0.60;99.90;;;;;;5038762;28;20865;-85
2023/12/03 02:03:35;;;;;;;0.50;0.40;;;0.60;99.90;;;;;;5038264;28;20200;-85
2023/12/03 02:06:06;;;;;;;9.25;5.07;;;0.60;99.90;;;;;;5039927;28;20191;-85
2023/12/03 02:08:33;;;;;;;0.98;0.98;;;0.60;99.90;;;;;;5038502;28;20738;-83
2023/12/03 02:11:00;;;;;;;3.80;3.50;;;0.60;99.90;;;;;;5036995;28;20222;-85
2023/12/03 02:13:30;;;;;;;4.65;4.35;;;0.60;99.90;;;;;;5037351;28;20226;-84
2023/12/03 02:15:58;;;;;;;3.80;3.25;;;0.70;99.90;;;;;;5037878;28;20571;-85
2023/12/03 02:18:26;;;;;;;6.28;4.57;;;0.70;99.90;;;;;;5037125;28;20590;-83
2023/12/03 02:20:53;;;;;;;5.00;3.83;;;0.70;99.90;;;;;;5037212;28;20200;-85
2023/12/03 02:23:22;;;;;;;18.65;9.65;;;0.70;99.90;;;;;;5037519;28;20294;-84
2023/12/03 02:25:51;;;;;;;2.55;1.50;;;0.70;99.90;;;;;;5036605;28;20231;-84
2023/12/03 02:28:17;;;;;;;5.43;5.07;;;0.80;99.90;;;;;;5037234;28;20235;-85
2023/12/03 02:30:44;;;;;;;4.32;1.73;;;0.80;99.90;;;;;;5036780;28;20283;-85
2023/12/03 02:33:11;;;;;;;4.05;3.67;;;0.80;99.90;;;;;;5037869;28;20198;-85
2023/12/03 02:35:38;;;;;;;3.00;1.95;;;0.80;99.90;;;;;;5037018;28;20206;-85
2023/12/03 02:38:05;;;;;;;1.35;1.30;;;0.80;99.90;;;;;;5036808;28;20216;-84
2023/12/03 02:40:34;;;;;;;5.70;5.18;;;0.80;99.90;;;;;;5037212;28;20196;-85
2023/12/03 02:43:01;;;;;;;6.30;5.75;;;0.80;99.90;;;;;;5037203;28;20219;-84
2023/12/03 02:45:27;;;;;;;3.90;2.65;;;0.80;99.90;;;;;;5038114;28;20210;-84
2023/12/03 02:47:54;;;;;;;2.92;2.72;;;0.80;99.90;;;;;;5037903;28;20612;-85
2023/12/03 02:50:21;;;;;;;14.73;8.00;;;0.90;99.90;;;;;;5037580;28;20231;-85
2023/12/03 02:52:48;;;;;;;3.33;3.08;;;0.80;99.90;;;;;;5036668;28;20329;-85
2023/12/03 02:55:15;;;;;;;14.07;8.43;;;0.80;99.90;;;;;;5037693;28;20191;-84
2023/12/03 02:57:43;;;;;;;2.63;2.13;;;0.80;99.90;;;;;;5036797;28;20249;-85
2023/12/03 03:00:11;;;;;;;2.78;2.40;;;0.80;99.90;;;;;;5037193;28;20196;-85
2023/12/03 03:02:38;;;;;;;4.90;4.18;;;0.90;99.90;;;;;;5036903;28;20291;-85
2023/12/03 03:05:05;;;;;;;7.15;6.55;;;0.90;99.90;;;;;;5036107;28;20210;-85
2023/12/03 03:07:32;;;;;;;5.75;4.40;;;0.90;99.90;;;;;;5035897;28;20207;-84
2023/12/03 03:10:00;;;;;;;2.15;1.60;;;0.80;99.90;;;;;;5036300;28;20188;-84
2023/12/03 03:12:27;;;;;;;4.80;3.20;;;0.80;99.90;;;;;;5035789;28;20228;-85
2023/12/03 03:14:55;;;;;;;11.32;7.68;;;0.80;99.90;;;;;;5035539;28;20283;-85
2023/12/03 03:17:22;;;;;;;10.23;7.90;;;0.70;99.90;;;;;;5033939;28;20273;-84
2023/12/03 03:19:49;;;;;;;2.95;2.75;;;0.70;99.90;;;;;;5032916;28;20219;-84
2023/12/03 03:22:15;;;;;;;14.48;4.93;;;0.70;99.90;;;;;;5034039;28;20220;-85
2023/12/03 03:24:42;;;;;;;13.60;7.68;;;0.80;99.90;;;;;;5033050;28;20196;-85
2023/12/03 03:27:09;;;;;;;3.88;3.67;;;0.80;99.90;;;;;;5033475;28;20286;-84
2023/12/03 03:29:37;;;;;;;4.55;1.65;;;0.80;99.90;;;;;;5033171;28;20212;-84
2023/12/03 03:32:05;;;;;;;16.10;4.97;;;0.80;99.90;;;;;;5032797;28;20249;-84
2023/12/03 03:34:32;;;;;;;2.10;1.98;;;0.80;99.90;;;;;;5033003;28;20199;-82
2023/12/03 03:36:59;;;;;;;3.35;3.15;;;0.80;99.90;;;;;;5032865;28;20202;-84
2023/12/03 03:39:26;;;;;;;7.30;1.15;;;0.80;99.90;;;;;;5033171;28;20397;-83
2023/12/03 03:41:52;;;;;;;3.90;3.35;;;0.70;99.90;;;;;;5032575;28;20227;-84
2023/12/03 03:44:19;;;;;;;22.25;8.63;;;0.80;99.90;;;;;;5032981;28;20195;-84
2023/12/03 03:46:46;;;;;;;3.95;2.83;;;0.70;99.90;;;;;;5032992;28;20210;-84
2023/12/03 03:49:14;;;;;;;25.42;4.65;;;0.70;99.90;;;;;;5033045;28;20826;-84
2023/12/03 03:51:41;;;;;;;17.00;5.07;;;0.80;99.90;;;;;;5032719;28;20315;-81
2023/12/03 03:54:08;;;;;;;9.25;6.90;;;0.80;99.90;;;;;;5033219;28;20203;-84
2023/12/03 03:56:35;;;;;;;24.55;5.88;;;0.80;99.90;;;;;;5032545;28;20196;-83
2023/12/03 03:59:02;;;;;;;11.77;5.13;;;0.70;99.90;;;;;;5032599;28;20218;-84
2023/12/03 04:01:30;;;;;;;10.23;6.63;;;0.70;99.90;;;;;;5032990;28;20262;-84
2023/12/03 04:03:57;;;;;;;7.18;3.90;;;0.70;99.90;;;;;;5032683;28;20204;-84
2023/12/03 04:06:25;;;;;;;15.13;6.53;;;0.70;99.90;;;;;;5033037;28;20211;-83
2023/12/03 04:08:52;;;;;;;2.97;2.78;;;0.70;99.90;;;;;;5032776;28;20282;-80
2023/12/03 04:11:19;;;;;;;4.03;3.63;;;0.80;99.90;;;;;;5032197;28;20733;-84
2023/12/03 04:13:46;;;;;;;3.30;3.00;;;0.70;99.90;;;;;;5031882;28;20204;-83
2023/12/03 04:16:22;;;;;;;3.75;3.10;;;0.70;99.90;;;;;;5032801;28;20343;-84
2023/12/03 04:18:49;;;;;;;5.47;4.65;;;0.70;99.90;;;;;;5034392;28;20223;-84
2023/12/03 04:21:16;;;;;;;3.70;1.08;;;0.80;99.90;;;;;;5034367;28;20694;-84
2023/12/03 04:23:44;;;;;;;13.10;7.53;;;0.70;99.90;;;;;;5032943;28;20210;-84
2023/12/03 04:26:12;;;;;;;10.07;6.53;;;0.90;99.90;;;;;;5033362;28;20195;-84
2023/12/03 04:28:40;;;;;;;0.50;0.40;;;0.80;99.90;;;;;;5032823;28;20222;-83
2023/12/03 04:31:19;;;;;;;4.72;3.33;;;0.90;99.90;;;;;;5032162;28;20226;-84
2023/12/03 04:33:46;;;;;;;4.72;4.20;;;0.90;99.90;;;;;;5032476;28;20207;-82
2023/12/03 04:36:14;;;;;;;1.33;1.27;;;1.00;99.90;;;;;;5032119;28;20282;-84
2023/12/03 04:38:40;;;;;;;8.38;7.53;;;0.90;99.90;;;;;;5031682;28;20223;-84
2023/12/03 04:41:09;;;;;;;5.78;5.20;;;0.90;99.90;;;;;;5032253;28;20245;-84
2023/12/03 04:43:36;;;;;;;9.45;6.47;;;0.90;99.90;;;;;;5032367;28;20235;-84
2023/12/03 04:46:07;;;;;;;7.53;3.03;;;0.80;99.90;;;;;;5024193;28;20302;-84
2023/12/03 04:48:34;;;;;;;2.50;2.30;;;0.80;99.90;;;;;;5032047;28;20223;-83
2023/12/03 04:51:01;;;;;;;6.43;5.85;;;0.80;99.90;;;;;;5032144;28;20224;-84
2023/12/03 04:53:28;;;;;;;2.10;2.00;;;0.70;99.90;;;;;;5032090;28;20650;-84
2023/12/03 04:55:56;;;;;;;10.10;4.63;;;0.70;99.90;;;;;;5032029;28;20295;-83
2023/12/03 04:58:25;;;;;;;3.13;2.78;;;0.70;99.90;;;;;;5032065;28;20203;-83
2023/12/03 05:00:52;;;;;;;1.05;0.95;;;0.70;99.90;;;;;;5031550;28;20199;-84
2023/12/03 05:03:18;;;;;;;8.73;5.03;;;0.60;99.90;;;;;;5032506;28;20200;-85
2023/12/03 05:05:45;;;;;;;0.50;0.50;;;0.60;99.90;;;;;;5031809;28;20200;-83
2023/12/03 05:08:12;;;;;;;1.95;1.85;;;0.60;99.90;;;;;;5031889;28;20192;-84
2023/12/03 05:10:39;;;;;;;6.75;5.63;;;0.70;99.90;;;;;;5031804;28;20202;-84
2023/12/03 05:13:06;;;;;;;3.17;2.97;;;0.60;99.90;;;;;;5023839;28;20291;-84
2023/12/03 05:15:34;;;;;;;3.38;2.30;;;0.60;99.90;;;;;;5031721;28;20200;-83
2023/12/03 05:18:01;;;;;;;3.53;2.13;;;0.60;99.90;;;;;;5031673;28;20203;-84
2023/12/03 05:20:28;;;;;;;3.67;3.47;;;0.60;99.90;;;;;;5032399;28;20715;-84
2023/12/03 05:22:54;;;;;;;17.38;5.50;;;0.50;99.90;;;;;;5031846;28;20231;-83
2023/12/03 05:25:22;;;;;;;6.15;2.45;;;0.60;99.90;;;;;;5032124;28;20858;-83
2023/12/03 05:27:48;;;;;;;0.50;0.40;;;0.60;99.90;;;;;;5034920;28;20618;-84
2023/12/03 05:30:16;;;;;;;9.27;2.63;;;0.60;99.90;;;;;;5035317;28;20198;-84
2023/12/03 05:32:44;;;;;;;11.23;5.97;;;0.60;99.90;;;;;;5035462;28;20216;-81
2023/12/03 05:35:11;;;;;;;12.70;7.40;;;0.60;99.90;;;;;;5035335;28;20188;-84
2023/12/03 05:37:39;;;;;;;5.07;4.65;;;0.60;99.90;;;;;;5034840;28;20200;-84
2023/12/03 05:40:08;;;;;;;4.78;4.07;;;0.70;99.90;;;;;;5034532;28;20212;-84
2023/12/03 05:42:35;;;;;;;5.55;5.05;;;0.70;99.90;;;;;;5034849;28;20672;-83
2023/12/03 05:45:03;;;;;;;4.65;4.28;;;0.70;99.90;;;;;;5034598;28;20207;-84
2023/12/03 05:47:30;;;;;;;5.25;1.80;;;0.70;99.90;;;;;;5034917;28;20739;-84
2023/12/03 05:49:59;;;;;;;3.13;2.42;;;0.70;99.90;;;;;;5034524;28;20195;-83
2023/12/03 05:52:25;;;;;;;2.17;1.98;;;0.70;99.90;;;;;;5034932;28;20764;-83
2023/12/03 05:54:52;;;;;;;1.45;1.35;;;0.70;99.90;;;;;;5034566;28;20200;-84
2023/12/03 05:57:19;;;;;;;8.32;4.45;;;0.80;99.90;;;;;;5035066;28;20206;-83
2023/12/03 05:59:46;;;;;;;3.65;3.42;;;0.70;99.90;;;;;;5034364;28;20221;-82
2023/12/03 06:02:13;;;;;;;6.15;5.35;;;0.70;99.90;;;;;;5034762;28;20211;-84
2023/12/03 06:04:40;;;;;;;3.47;3.15;;;0.70;99.90;;;;;;5034741;28;20195;-84
2023/12/03 06:07:08;;;;;;;9.05;4.38;;;0.70;99.90;;;;;;5034482;28;20196;-84
2023/12/03 06:09:35;;;;;;;2.13;1.92;;;0.80;99.90;;;;;;5034650;28;20570;-84
2023/12/03 06:12:02;;;;;;;2.20;2.00;;;0.80;99.90;;;;;;5035108;28;20229;-83
2023/12/03 06:14:29;;;;;;;7.57;2.53;;;0.80;99.90;;;;;;5035449;28;20200;-84
2023/12/03 06:16:56;;;;;;;1.95;1.88;;;0.80;99.90;;;;;;5034951;28;20576;-82
2023/12/03 06:19:22;;;;;;;1.73;1.67;;;0.80;99.90;;;;;;5034572;28;20242;-83
2023/12/03 06:21:49;;;;;;;5.03;3.20;;;0.80;99.90;;;;;;5034003;28;20219;-84
2023/12/03 06:24:17;;;;;;;2.35;2.25;;;0.80;99.90;;;;;;5034191;28;20200;-84
2023/12/03 06:26:44;;;;;;;3.55;2.60;;;0.80;99.90;;;;;;5034355;28;20200;-84
2023/12/03 06:29:11;;;;;;;3.65;2.15;;;0.80;99.90;;;;;;5034733;28;20203;-84
2023/12/03 06:31:38;;;;;;;3.30;1.77;;;0.80;99.90;;;;;;5036046;28;20223;-84
2023/12/03 06:34:04;;;;;;;2.85;2.33;;;0.80;99.90;;;;;;5037302;28;20636;-86
2023/12/03 06:36:31;;;;;;;4.13;3.25;;;0.80;99.90;;;;;;5057155;28;20180;-84
2023/12/03 06:38:58;;;;;;;0.50;0.40;;;0.80;99.90;;;;;;5042093;28;20298;-83
2023/12/03 06:41:26;;;;;;;3.75;3.20;;;0.80;99.90;;;;;;5037633;28;20219;-84
2023/12/03 06:43:53;;;;;;;5.72;2.90;;;0.80;99.90;;;;;;5037328;28;20199;-85
2023/12/03 06:46:20;;;;;;;1.77;1.20;;;0.80;99.90;;;;;;5035740;28;20199;-84
2023/12/03 06:48:46;;;;;;;5.78;3.83;;;0.80;99.90;;;;;;5034971;28;20594;-84
2023/12/03 06:51:13;;;;;;;1.77;1.67;;;0.70;99.90;;;;;;5035753;28;20211;-84
2023/12/03 06:53:40;;;;;;;8.88;8.25;;;0.80;99.90;;;;;;5034761;28;20583;-85
2023/12/03 06:56:10;;;;;;;2.75;1.92;;;0.80;99.90;;;;;;5034192;28;20207;-84
2023/12/03 06:58:38;;;;;;;6.00;4.93;;;0.80;99.90;;;;;;5033993;28;20242;-84
2023/12/03 07:01:06;;;;;;;4.22;1.52;;;0.80;99.90;;;;;;5033579;28;20223;-84
2023/12/03 07:03:32;;;;;;;1.05;0.95;;;0.80;99.90;;;;;;5035209;28;20268;-84
2023/12/03 07:06:00;;;;;;;2.65;2.45;;;0.80;99.90;;;;;;5034141;28;20767;-83
2023/12/03 07:08:27;;;;;;;6.45;3.72;;;0.80;99.90;;;;;;5033986;28;20214;-83
2023/12/03 07:10:53;;;;;;;2.17;2.03;;;0.80;99.90;;;;;;5033309;28;20710;-83
2023/12/03 07:13:21;;;;;;;3.72;3.25;;;0.80;99.90;;;;;;5034004;28;20598;-82
2023/12/03 07:15:49;;;;;;;9.10;4.35;;;0.80;99.90;;;;;;5034281;28;20208;-83
2023/12/03 07:18:16;;;;;;;1.63;1.52;;;0.80;99.90;;;;;;5033556;28;20228;-83
2023/12/03 07:20:42;;;;;;;1.67;0.90;;;0.80;99.90;;;;;;5034314;28;20717;-81
2023/12/03 07:23:09;;;;;;;4.43;3.63;;;0.80;99.90;;;;;;5033952;28;20204;-83
2023/12/03 07:25:36;;;;;;;0.50;0.40;;;0.90;99.90;;;;;;5033067;28;20228;-83
2023/12/03 07:28:03;;;;;;;2.25;1.30;;;0.90;99.90;;;;;;5033527;28;20195;-83
2023/12/03 07:30:30;;;;;;;13.23;3.33;;;0.80;99.90;;;;;;5033149;28;20231;-83
2023/12/03 07:32:58;;;;;;;3.63;3.33;;;0.90;99.90;;;;;;5032917;28;20306;-83
2023/12/03 07:35:24;;;;;;;7.78;2.70;;;0.80;99.90;;;;;;5033791;28;20216;-82
2023/12/03 07:37:51;;;;;;;3.13;2.17;;;0.70;99.90;;;;;;5032935;28;20206;-82
2023/12/03 07:40:18;;;;;;;3.28;2.97;;;0.70;99.90;;;;;;5032736;28;20226;-83
2023/12/03 07:42:45;;;;;;;0.60;0.60;;;0.70;99.90;;;;;;5033194;28;20308;-80
2023/12/03 07:45:12;;;;;;;5.75;4.90;;;0.70;99.90;;;;;;5032868;28;20205;-83
2023/12/03 07:47:38;;;;;;;0.90;0.90;;;0.70;99.90;;;;;;5032509;28;20662;-83
2023/12/03 07:50:08;;;;;;;1.45;1.35;;;0.80;99.90;;;;;;5031501;28;20225;-84
2023/12/03 07:52:35;;;;;;;12.27;7.22;;;0.80;99.90;;;;;;5032630;28;20224;-83
2023/12/03 07:55:02;;;;;;;2.25;1.50;;;0.90;99.90;;;;;;5032487;28;20202;-83
2023/12/03 07:57:28;;;;;;;8.10;2.78;;;1.00;99.90;;;;;;5032527;28;20214;-82
2023/12/03 07:59:55;;;;;;;2.17;1.95;;;0.90;99.90;;;;;;5033579;28;20215;-80
2023/12/03 08:02:22;;;;;;;1.40;1.33;;;1.00;99.90;;;;;;5032670;28;20219;-84
2023/12/03 08:04:49;;;;;;;0.82;0.60;;;1.00;99.90;;;;;;5032723;28;20658;-82
2023/12/03 08:07:17;;;;;;;0.70;0.70;;;0.90;99.90;;;;;;5032149;28;20751;-83
2023/12/03 08:09:44;;;;;;;1.02;0.93;;;0.90;99.90;;;;;;5032876;28;20671;-83
2023/12/03 08:12:10;;;;;;;0.50;0.50;;;0.90;99.90;;;;;;5040469;28;20243;-83
2023/12/03 08:14:37;;;;;;;2.88;2.78;;;1.00;99.90;;;;;;5044471;28;20264;-83
2023/12/03 08:17:06;;;;;;;1.15;1.15;;;1.00;99.90;;;;;;5045255;28;20222;-83
2023/12/03 08:19:33;;;;;;;8.23;3.00;;;0.90;99.90;;;;;;5043888;28;20200;-83
2023/12/03 08:22:00;;;;;;;4.05;2.15;;;1.10;99.90;;;;;;5044124;28;20243;-82
2023/12/03 08:24:28;;;;;;;3.25;1.98;;;1.30;99.90;;;;;;5045053;28;20195;-83
2023/12/03 08:26:54;;;;;;;0.50;0.40;;;1.40;99.90;;;;;;5043535;28;20196;-82
2023/12/03 08:29:21;;;;;;;0.50;0.50;;;1.50;99.90;;;;;;5045631;28;20196;-83
2023/12/03 08:31:49;;;;;;;2.72;2.53;;;1.60;99.90;;;;;;5045610;28;20243;-83
2023/12/03 08:34:17;;;;;;;1.25;1.25;;;1.60;99.90;;;;;;5034968;28;20204;-83
2023/12/03 08:36:44;;;;;;;3.05;2.75;;;1.50;99.90;;;;;;5034460;28;20192;-82
2023/12/03 08:39:12;;;;;;;3.75;2.97;;;1.40;99.90;;;;;;5033744;28;20203;-83
2023/12/03 08:41:40;;;;;;;5.75;3.20;;;1.30;99.90;;;;;;5050825;28;20195;-83
2023/12/03 08:44:07;;;;;;;3.15;1.75;;;1.30;99.90;;;;;;5053150;28;20278;-83
2023/12/03 08:46:34;;;;;;;4.30;4.00;;;1.30;99.90;;;;;;5049446;28;20203;-83
2023/12/03 08:49:00;;;;;;;3.50;3.22;;;1.40;99.90;;;;;;5056027;28;20187;-82
2023/12/03 08:51:27;;;;;;;2.25;0.98;;;1.80;99.90;;;;;;5045701;28;20247;-84
2023/12/03 08:53:55;;;;;;;5.50;4.75;;;2.10;99.90;;;;;;5048523;28;20247;-82
2023/12/03 08:56:22;;;;;;;5.28;3.97;;;2.50;99.90;;;;;;5045826;28;20203;-84
2023/12/03 08:58:50;;;;;;;0.50;0.40;;;2.80;99.90;;;;;;5049950;28;20226;-83
2023/12/03 09:01:16;;;;;;;5.45;1.52;;;3.10;99.90;;;;;;5053287;28;20287;-83
2023/12/03 09:03:43;;;;;;;1.38;1.38;;;3.50;99.90;;;;;;5056606;28;20294;-83
2023/12/03 09:06:11;;;;;;;1.13;0.70;;;3.40;99.90;;;;;;5058182;28;20226;-84
2023/12/03 09:08:38;;;;;;;1.55;1.45;;;3.30;99.90;;;;;;5060093;28;20180;-83
2023/12/03 09:11:06;;;;;;;3.90;3.53;;;3.60;99.90;;;;;;5059534;28;20215;-82
2023/12/03 09:13:33;;;;;;;1.88;1.77;;;3.70;99.90;;;;;;5060212;28;20184;-82
2023/12/03 09:16:01;;;;;;;0.50;0.50;;;3.90;99.90;;;;;;5059203;28;20211;-82
2023/12/03 09:18:28;;;;;;;4.38;3.97;;;4.00;99.90;;;;;;5054892;28;20299;-82
2023/12/03 09:20:55;;;;;;;2.03;1.92;;;4.10;99.90;;;;;;5049308;28;20223;-82
2023/12/03 09:23:21;;;;;;;2.75;2.53;;;4.30;99.90;;;;;;5048760;28;20230;-82
2023/12/03 09:25:48;;;;;;;4.22;2.80;;;4.30;99.90;;;;;;5049342;28;20260;-82
2023/12/03 09:28:15;;;;;;;5.85;1.55;;;4.10;99.90;;;;;;5054365;28;20283;-80
2023/12/03 09:30:42;;;;;;;7.63;2.33;;;3.80;99.90;;;;;;5058963;28;20211;-81
2023/12/03 09:33:10;;;;;;;1.05;1.02;;;3.80;99.90;;;;;;5058516;28;20172;-82
2023/12/03 09:35:37;;;;;;;4.10;2.08;;;3.70;99.90;;;;;;5060165;28;20203;-83
2023/12/03 09:38:04;;;;;;;4.53;2.22;;;3.60;99.90;;;;;;5059812;28;20203;-83
2023/12/03 09:40:31;;;;;;;0.70;0.70;;;3.40;99.90;;;;;;5050547;28;20310;-82
2023/12/03 09:43:01;;;;;;;2.25;1.30;;;3.20;99.90;;;;;;5050060;28;20242;-82
2023/12/03 09:45:29;;;;;;;9.48;3.95;;;3.40;99.90;;;;;;5046205;28;20195;-83
2023/12/03 09:48:01;;;;;;;1.30;1.30;;;3.00;99.90;;;;;;5047491;28;20195;-82
2023/12/03 09:50:30;;;;;;;1.63;1.42;;;3.00;99.90;;;;;;5047941;28;20228;-83
2023/12/03 09:52:58;;;;;;;1.67;1.58;;;3.10;99.90;;;;;;5049001;28;20242;-81
2023/12/03 09:55:25;;;;;;;1.70;1.52;;;3.20;99.90;;;;;;5048909;28;20219;-83
2023/12/03 09:57:56;;;;;;;4.38;1.85;;;3.50;99.90;;;;;;5048433;28;20659;-83
2023/12/03 10:00:23;;;;;;;8.82;3.10;;;3.60;99.90;;;;;;5046060;28;20242;-82
2023/12/03 10:02:54;;;;;;;23.65;5.90;;;3.50;99.90;;;;;;5047649;28;20222;-81
2023/12/03 10:05:21;;;;;;;2.88;2.15;;;3.70;99.90;;;;;;5047814;28;20192;-82
2023/12/03 10:07:49;;;;;;;2.50;1.23;;;3.40;99.90;;;;;;5047224;28;20203;-83
2023/12/03 10:10:20;;;;;;;2.05;2.00;;;3.30;99.90;;;;;;5045062;28;20664;-83
2023/12/03 10:12:50;;;;;;;2.13;1.48;;;3.40;99.90;;;;;;5044616;28;20277;-82
2023/12/03 10:15:16;;;;;;;1.23;0.65;;;3.30;99.90;;;;;;5045278;28;20199;-83
2023/12/03 10:17:44;;;;;;;0.55;0.55;;;3.10;99.90;;;;;;5045439;28;20255;-82
2023/12/03 10:20:22;;;;;;;4.18;3.58;;;3.00;99.90;;;;;;5045490;28;20219;-83
2023/12/03 10:22:50;;;;;;;3.00;2.65;;;3.00;99.90;;;;;;5044985;28;20237;-82
2023/12/03 10:25:26;;;;;;;5.00;2.33;;;2.90;99.90;;;;;;5044777;28;20264;-83
2023/12/03 10:27:54;;;;;;;1.10;1.02;;;2.90;99.90;;;;;;5045599;28;20230;-81
2023/12/03 10:30:20;;;;;;;3.63;2.92;;;3.00;99.90;;;;;;5045518;28;20738;-83
2023/12/03 10:32:47;;;;;;;2.13;1.70;;;2.90;99.90;;;;;;5046848;28;20219;-81
2023/12/03 10:35:14;;;;;;;1.02;0.93;;;2.70;99.90;;;;;;5044844;28;20630;-82
2023/12/03 10:37:41;;;;;;;1.92;1.83;;;2.80;99.90;;;;;;5045168;28;20287;-83
2023/12/03 10:40:11;;;;;;;6.63;3.38;;;2.70;99.90;;;;;;5044379;28;20283;-83
2023/12/03 10:42:38;;;;;;;0.85;0.85;;;2.70;99.90;;;;;;5044647;28;20211;-83
2023/12/03 10:45:07;;;;;;;0.63;0.63;;;2.70;99.90;;;;;;5045327;28;20251;-83
2023/12/03 10:47:35;;;;;;;3.35;3.08;;;2.80;99.90;;;;;;5044676;28;20191;-82
2023/12/03 10:50:03;;;;;;;4.57;2.15;;;2.90;99.90;;;;;;5045004;28;20192;-82
2023/12/03 10:52:31;;;;;;;12.07;3.47;;;3.10;99.90;;;;;;5044772;28;20246;-83
2023/12/03 10:54:58;;;;;;;0.50;0.50;;;3.30;99.90;;;;;;5045538;28;20196;-83
2023/12/03 10:57:29;;;;;;;3.05;2.42;;;3.60;99.90;;;;;;5044603;28;20219;-82
2023/12/03 11:00:03;;;;;;;2.95;2.63;;;3.60;99.90;;;;;;5044920;28;20192;-82
2023/12/03 11:02:39;;;;;;;3.70;2.47;;;3.70;99.90;;;;;;5044292;28;20219;-83
2023/12/03 11:05:07;;;;;;;2.90;2.70;;;3.90;99.90;;;;;;5044193;28;20199;-83
2023/12/03 11:07:34;;;;;;;2.38;2.22;;;4.10;99.90;;;;;;5045001;28;20539;-84
2023/12/03 11:10:01;;;;;;;0.80;0.80;;;4.10;99.90;;;;;;5046805;28;20200;-83
2023/12/03 11:12:29;;;;;;;1.88;1.25;;;3.90;99.90;;;;;;5047845;28;20243;-83
2023/12/03 11:14:57;;;;;;;8.52;3.80;;;3.80;99.90;;;;;;5055312;28;20226;-83
2023/12/03 11:17:30;;;;;;;0.88;0.88;;;3.70;99.90;;;;;;5054613;28;20187;-83
2023/12/03 11:20:04;;;;;;;0.75;0.75;;;3.40;99.90;;;;;;5055390;28;20196;-82
2023/12/03 11:22:46;;;;;;;3.08;2.85;;;3.40;99.90;;;;;;5055084;28;20246;-82
2023/12/03 11:25:13;;;;;;;4.65;2.60;;;3.30;99.90;;;;;;5055905;28;20256;-82
2023/12/03 11:27:46;;;;;;;1.25;1.15;;;3.10;99.90;;;;;;5056043;28;20192;-83
2023/12/03 11:30:15;;;;;;;2.72;2.50;;;2.90;99.90;;;;;;5055979;28;20244;-83
2023/12/03 11:32:42;;;;;;;1.40;0.82;;;2.80;99.90;;;;;;5048121;28;20315;-83
2023/12/03 11:35:13;;;;;;;1.60;1.50;;;2.80;99.90;;;;;;5055445;28;20315;-82
2023/12/03 11:37:43;;;;;;;0.98;0.80;;;2.70;99.90;;;;;;5049384;28;20188;-83
2023/12/03 11:40:12;;;;;;;1.95;1.58;;;3.00;99.90;;;;;;5045352;28;20203;-83
2023/12/03 11:42:48;;;;;;;5.38;3.00;;;3.50;99.90;;;;;;5045454;28;20216;-83
2023/12/03 11:45:20;;;;;;;0.82;0.80;;;3.90;99.90;;;;;;5044946;28;20196;-84
2023/12/03 11:48:05;;;;;;;3.47;1.85;;;4.50;99.90;;;;;;5044750;28;20195;-83
2023/12/03 11:50:32;;;;;;;0.80;0.80;;;4.80;99.90;;;;;;5044394;28;20201;-83
2023/12/03 11:52:59;;;;;;;5.10;4.30;;;4.70;99.90;;;;;;5045159;28;20287;-84
2023/12/03 11:55:27;;;;;;;6.43;3.45;;;4.80;99.90;;;;;;5044963;28;20200;-83
2023/12/03 11:57:56;;;;;;;2.45;2.15;;;4.70;99.90;;;;;;5044424;28;20188;-81
2023/12/03 12:00:24;;;;;;;1.38;1.30;;;4.60;99.90;;;;;;5043190;28;20271;-83
2023/12/03 12:02:51;;;;;;;2.20;2.05;;;4.50;99.90;;;;;;5044802;28;20593;-84
2023/12/03 12:05:18;;;;;;;0.50;0.50;;;4.70;99.90;;;;;;5044879;28;20267;-83
2023/12/03 12:07:56;;;;;;;3.42;3.00;;;4.50;99.90;;;;;;5044718;28;20192;-84
2023/12/03 12:10:23;;;;;;;1.63;1.52;;;4.50;99.90;;;;;;5044116;28;20199;-83
2023/12/03 12:12:50;;;;;;;3.00;2.03;;;4.60;99.90;;;;;;5044399;28;20226;-82
2023/12/03 12:15:18;;;;;;;5.60;2.88;;;4.60;99.90;;;;;;5048660;28;20609;-83
2023/12/03 12:17:45;;;;;;;12.50;4.85;;;4.50;99.90;;;;;;5035347;28;20226;-83
2023/12/03 12:20:12;;;;;;;0.77;0.77;;;4.40;99.90;;;;;;5043690;28;20191;-83
2023/12/03 12:22:39;;;;;;;3.30;3.00;;;4.20;99.90;;;;;;5043974;28;20216;-83
2023/12/03 12:25:08;;;;;;;2.83;2.15;;;4.20;99.90;;;;;;5043786;28;20192;-83
2023/12/03 12:27:35;;;;;;;10.82;5.95;;;4.20;99.90;;;;;;5042626;28;20195;-83
2023/12/03 12:30:03;;;;;;;4.88;1.83;;;4.10;99.90;;;;;;5043072;28;20192;-83
2023/12/03 12:32:31;;;;;;;0.77;0.77;;;3.90;99.90;;;;;;5043002;28;20224;-82
2023/12/03 12:35:01;;;;;;;1.65;1.50;;;3.90;99.90;;;;;;5045407;28;20219;-83
2023/12/03 12:37:28;;;;;;;3.35;1.15;;;4.20;99.90;;;;;;5046109;28;20200;-83
2023/12/03 12:40:07;;;;;;;7.93;4.30;;;4.20;99.90;;;;;;5045437;28;20226;-82
2023/12/03 12:42:34;;;;;;;1.88;1.77;;;4.40;99.90;;;;;;5046199;28;20285;-83
2023/12/03 12:45:02;;;;;;;3.75;1.92;;;4.30;99.90;;;;;;5046221;28;20196;-83
2023/12/03 12:47:36;;;;;;;4.30;2.42;;;4.10;99.90;;;;;;5046055;28;20203;-83
2023/12/03 12:50:04;;;;;;;0.60;0.60;;;4.00;99.90;;;;;;5046987;28;20203;-83
2023/12/03 12:52:33;;;;;;;5.95;4.90;;;3.80;99.90;;;;;;5046214;28;20271;-83
2023/12/03 12:55:00;;;;;;;0.60;0.60;;;3.70;99.90;;;;;;5046486;28;20612;-83
2023/12/03 12:57:28;;;;;;;0.82;0.80;;;3.70;99.90;;;;;;5047277;28;20203;-83